sensor_id;sensor_type;location;lat;lon;timestamp;P1;durP1;ratioP1;P2;durP2;ratioP2
313;SDS011;143;51.634;7.112;2023-02-15T00:01:36;36.90;;;20.57;;
313;SDS011;143;51.634;7.112;2023-02-15T00:04:03;36.20;;;19.80;;
313;SDS011;143;51.634;7.112;2023-02-15T00:06:30;35.67;;;18.57;;
313;SDS011;143;51.634;7.112;2023-02-15T00:08:56;32.50;;;17.00;;
313;SDS011;143;51.634;7.112;2023-02-15T00:11:22;40.07;;;19.00;;
313;SDS011;143;51.634;7.112;2023-02-15T00:14:26;35.93;;;17.20;;
313;SDS011;143;51.634;7.112;2023-02-15T00:16:52;35.50;;;16.50;;
313;SDS011;143;51.634;7.112;2023-02-15T00:19:19;31.93;;;16.00;;
313;SDS011;143;51.634;7.112;2023-02-15T00:21:46;30.80;;;18.00;;
313;SDS011;143;51.634;7.112;2023-02-15T00:24:13;31.73;;;17.90;;
313;SDS011;143;51.634;7.112;2023-02-15T00:26:41;32.10;;;17.73;;
313;SDS011;143;51.634;7.112;2023-02-15T00:29:08;42.45;;;19.33;;
313;SDS011;143;51.634;7.112;2023-02-15T00:31:34;35.60;;;19.73;;
313;SDS011;143;51.634;7.112;2023-02-15T00:34:01;38.30;;;19.63;;
313;SDS011;143;51.634;7.112;2023-02-15T00:36:31;39.35;;;20.85;;
313;SDS011;143;51.634;7.112;2023-02-15T00:38:57;38.65;;;20.48;;
313;SDS011;143;51.634;7.112;2023-02-15T00:41:24;40.90;;;19.63;;
313;SDS011;143;51.634;7.112;2023-02-15T00:43:50;41.78;;;20.95;;
313;SDS011;143;51.634;7.112;2023-02-15T00:46:16;43.87;;;22.90;;
313;SDS011;143;51.634;7.112;2023-02-15T00:48:42;43.23;;;19.87;;
313;SDS011;143;51.634;7.112;2023-02-15T00:51:08;36.13;;;18.90;;
313;SDS011;143;51.634;7.112;2023-02-15T00:53:33;48.70;;;20.97;;
313;SDS011;143;51.634;7.112;2023-02-15T00:55:59;41.00;;;18.80;;
313;SDS011;143;51.634;7.112;2023-02-15T00:58:25;44.43;;;20.50;;
313;SDS011;143;51.634;7.112;2023-02-15T01:00:51;39.03;;;20.33;;
313;SDS011;143;51.634;7.112;2023-02-15T01:03:17;38.10;;;20.00;;
313;SDS011;143;51.634;7.112;2023-02-15T01:05:45;41.60;;;18.80;;
313;SDS011;143;51.634;7.112;2023-02-15T01:08:12;38.22;;;19.17;;
313;SDS011;143;51.634;7.112;2023-02-15T01:10:37;39.00;;;18.83;;
313;SDS011;143;51.634;7.112;2023-02-15T01:13:04;33.60;;;18.40;;
313;SDS011;143;51.634;7.112;2023-02-15T01:15:30;32.67;;;17.60;;
313;SDS011;143;51.634;7.112;2023-02-15T01:17:56;36.50;;;19.33;;
313;SDS011;143;51.634;7.112;2023-02-15T01:20:25;41.43;;;19.90;;
313;SDS011;143;51.634;7.112;2023-02-15T01:22:52;32.83;;;19.92;;
313;SDS011;143;51.634;7.112;2023-02-15T01:25:20;35.10;;;17.77;;
313;SDS011;143;51.634;7.112;2023-02-15T01:27:47;36.90;;;18.98;;
313;SDS011;143;51.634;7.112;2023-02-15T01:30:13;31.87;;;16.60;;
313;SDS011;143;51.634;7.112;2023-02-15T01:32:40;38.90;;;19.10;;
313;SDS011;143;51.634;7.112;2023-02-15T01:35:06;38.47;;;19.05;;
313;SDS011;143;51.634;7.112;2023-02-15T01:37:32;48.43;;;20.83;;
313;SDS011;143;51.634;7.112;2023-02-15T01:39:58;40.28;;;21.45;;
313;SDS011;143;51.634;7.112;2023-02-15T01:42:25;45.55;;;22.52;;
313;SDS011;143;51.634;7.112;2023-02-15T01:44:53;36.55;;;19.48;;
313;SDS011;143;51.634;7.112;2023-02-15T01:47:41;45.88;;;21.88;;
313;SDS011;143;51.634;7.112;2023-02-15T01:52:59;42.25;;;20.20;;
313;SDS011;143;51.634;7.112;2023-02-15T01:55:34;40.88;;;20.05;;
313;SDS011;143;51.634;7.112;2023-02-15T01:58:04;36.45;;;20.88;;
313;SDS011;143;51.634;7.112;2023-02-15T02:00:31;40.05;;;18.50;;
313;SDS011;143;51.634;7.112;2023-02-15T02:02:59;33.28;;;19.20;;
313;SDS011;143;51.634;7.112;2023-02-15T02:05:26;35.67;;;18.83;;
313;SDS011;143;51.634;7.112;2023-02-15T02:07:54;38.55;;;18.50;;
313;SDS011;143;51.634;7.112;2023-02-15T02:10:23;44.13;;;20.88;;
313;SDS011;143;51.634;7.112;2023-02-15T02:12:51;41.03;;;19.77;;
313;SDS011;143;51.634;7.112;2023-02-15T02:15:20;38.90;;;19.73;;
313;SDS011;143;51.634;7.112;2023-02-15T02:23:24;42.30;;;21.00;;
313;SDS011;143;51.634;7.112;2023-02-15T02:34:26;50.33;;;22.48;;
313;SDS011;143;51.634;7.112;2023-02-15T02:42:42;48.20;;;23.48;;
313;SDS011;143;51.634;7.112;2023-02-15T02:45:25;47.03;;;23.40;;
313;SDS011;143;51.634;7.112;2023-02-15T02:48:04;47.35;;;22.90;;
313;SDS011;143;51.634;7.112;2023-02-15T02:50:33;44.47;;;21.20;;
313;SDS011;143;51.634;7.112;2023-02-15T02:52:59;45.30;;;22.37;;
313;SDS011;143;51.634;7.112;2023-02-15T02:55:30;34.80;;;19.67;;
313;SDS011;143;51.634;7.112;2023-02-15T03:00:31;37.55;;;20.00;;
313;SDS011;143;51.634;7.112;2023-02-15T03:03:03;39.22;;;18.08;;
313;SDS011;143;51.634;7.112;2023-02-15T03:05:44;37.40;;;19.50;;
313;SDS011;143;51.634;7.112;2023-02-15T03:08:13;40.92;;;20.45;;
313;SDS011;143;51.634;7.112;2023-02-15T03:10:47;49.20;;;19.17;;
313;SDS011;143;51.634;7.112;2023-02-15T03:13:16;65.50;;;26.80;;
313;SDS011;143;51.634;7.112;2023-02-15T03:15:42;50.85;;;24.25;;
313;SDS011;143;51.634;7.112;2023-02-15T03:18:30;54.08;;;23.48;;
313;SDS011;143;51.634;7.112;2023-02-15T03:21:00;50.28;;;23.98;;
313;SDS011;143;51.634;7.112;2023-02-15T03:23:27;48.08;;;25.60;;
313;SDS011;143;51.634;7.112;2023-02-15T03:26:00;45.95;;;23.50;;
313;SDS011;143;51.634;7.112;2023-02-15T03:29:01;48.20;;;24.17;;
313;SDS011;143;51.634;7.112;2023-02-15T03:31:21;49.07;;;22.77;;
313;SDS011;143;51.634;7.112;2023-02-15T03:33:58;46.93;;;22.57;;
313;SDS011;143;51.634;7.112;2023-02-15T03:44:58;46.80;;;21.80;;
313;SDS011;143;51.634;7.112;2023-02-15T03:47:36;54.23;;;23.13;;
313;SDS011;143;51.634;7.112;2023-02-15T03:53:03;51.65;;;22.27;;
313;SDS011;143;51.634;7.112;2023-02-15T03:55:33;40.60;;;20.63;;
313;SDS011;143;51.634;7.112;2023-02-15T03:57:59;49.00;;;22.58;;
313;SDS011;143;51.634;7.112;2023-02-15T04:00:45;40.33;;;19.30;;
313;SDS011;143;51.634;7.112;2023-02-15T04:03:39;39.83;;;20.88;;
313;SDS011;143;51.634;7.112;2023-02-15T04:06:08;40.23;;;19.07;;
313;SDS011;143;51.634;7.112;2023-02-15T04:08:34;49.27;;;21.33;;
313;SDS011;143;51.634;7.112;2023-02-15T04:11:18;43.83;;;22.73;;
313;SDS011;143;51.634;7.112;2023-02-15T04:13:44;47.50;;;22.37;;
313;SDS011;143;51.634;7.112;2023-02-15T04:16:10;50.93;;;21.33;;
313;SDS011;143;51.634;7.112;2023-02-15T04:18:37;45.13;;;20.77;;
313;SDS011;143;51.634;7.112;2023-02-15T04:21:26;53.67;;;24.10;;
313;SDS011;143;51.634;7.112;2023-02-15T04:24:13;43.03;;;19.37;;
313;SDS011;143;51.634;7.112;2023-02-15T04:26:58;47.33;;;23.17;;
313;SDS011;143;51.634;7.112;2023-02-15T04:29:25;41.70;;;20.37;;
313;SDS011;143;51.634;7.112;2023-02-15T04:31:53;47.53;;;21.83;;
313;SDS011;143;51.634;7.112;2023-02-15T04:34:20;47.97;;;21.60;;
313;SDS011;143;51.634;7.112;2023-02-15T04:36:46;44.42;;;20.50;;
313;SDS011;143;51.634;7.112;2023-02-15T04:39:12;34.37;;;17.90;;
313;SDS011;143;51.634;7.112;2023-02-15T04:41:39;53.43;;;20.50;;
313;SDS011;143;51.634;7.112;2023-02-15T04:44:06;40.13;;;22.23;;
313;SDS011;143;51.634;7.112;2023-02-15T04:46:32;47.23;;;22.23;;
313;SDS011;143;51.634;7.112;2023-02-15T04:48:57;51.47;;;22.63;;
313;SDS011;143;51.634;7.112;2023-02-15T04:51:23;51.73;;;21.53;;
313;SDS011;143;51.634;7.112;2023-02-15T04:53:49;48.73;;;22.50;;
313;SDS011;143;51.634;7.112;2023-02-15T04:56:17;46.63;;;20.97;;
313;SDS011;143;51.634;7.112;2023-02-15T04:58:44;46.50;;;22.20;;
313;SDS011;143;51.634;7.112;2023-02-15T05:01:09;36.27;;;18.40;;
313;SDS011;143;51.634;7.112;2023-02-15T05:03:37;46.30;;;20.10;;
313;SDS011;143;51.634;7.112;2023-02-15T05:06:02;41.83;;;20.33;;
313;SDS011;143;51.634;7.112;2023-02-15T05:08:29;40.67;;;20.38;;
313;SDS011;143;51.634;7.112;2023-02-15T05:10:55;35.10;;;17.35;;
313;SDS011;143;51.634;7.112;2023-02-15T05:13:21;39.28;;;19.48;;
313;SDS011;143;51.634;7.112;2023-02-15T05:15:50;37.13;;;17.50;;
313;SDS011;143;51.634;7.112;2023-02-15T05:18:18;34.10;;;16.98;;
313;SDS011;143;51.634;7.112;2023-02-15T05:20:44;35.67;;;16.20;;
313;SDS011;143;51.634;7.112;2023-02-15T05:23:10;33.70;;;16.43;;
313;SDS011;143;51.634;7.112;2023-02-15T05:25:36;36.15;;;18.23;;
313;SDS011;143;51.634;7.112;2023-02-15T05:28:22;38.65;;;17.60;;
313;SDS011;143;51.634;7.112;2023-02-15T05:30:56;38.75;;;19.58;;
313;SDS011;143;51.634;7.112;2023-02-15T05:33:27;38.25;;;20.08;;
313;SDS011;143;51.634;7.112;2023-02-15T05:35:53;40.63;;;21.63;;
313;SDS011;143;51.634;7.112;2023-02-15T05:38:20;35.42;;;18.80;;
313;SDS011;143;51.634;7.112;2023-02-15T05:40:46;39.75;;;20.50;;
313;SDS011;143;51.634;7.112;2023-02-15T05:43:13;44.13;;;22.42;;
313;SDS011;143;51.634;7.112;2023-02-15T05:45:39;42.85;;;23.35;;
313;SDS011;143;51.634;7.112;2023-02-15T05:48:05;52.73;;;23.70;;
313;SDS011;143;51.634;7.112;2023-02-15T05:50:31;52.47;;;25.20;;
313;SDS011;143;51.634;7.112;2023-02-15T05:52:58;47.50;;;23.75;;
313;SDS011;143;51.634;7.112;2023-02-15T05:55:25;42.70;;;23.00;;
313;SDS011;143;51.634;7.112;2023-02-15T05:57:53;46.63;;;22.38;;
313;SDS011;143;51.634;7.112;2023-02-15T06:00:19;45.78;;;22.63;;
313;SDS011;143;51.634;7.112;2023-02-15T06:02:45;41.07;;;21.30;;
313;SDS011;143;51.634;7.112;2023-02-15T06:05:11;41.47;;;20.70;;
313;SDS011;143;51.634;7.112;2023-02-15T06:07:38;43.50;;;20.25;;
313;SDS011;143;51.634;7.112;2023-02-15T06:10:04;41.77;;;19.87;;
313;SDS011;143;51.634;7.112;2023-02-15T06:12:30;45.85;;;21.48;;
313;SDS011;143;51.634;7.112;2023-02-15T06:14:55;38.50;;;19.00;;
313;SDS011;143;51.634;7.112;2023-02-15T06:17:21;38.50;;;18.97;;
313;SDS011;143;51.634;7.112;2023-02-15T06:19:47;43.87;;;20.87;;
313;SDS011;143;51.634;7.112;2023-02-15T06:22:12;42.33;;;21.97;;
313;SDS011;143;51.634;7.112;2023-02-15T06:24:39;41.90;;;22.13;;
313;SDS011;143;51.634;7.112;2023-02-15T06:27:07;47.85;;;23.88;;
313;SDS011;143;51.634;7.112;2023-02-15T06:29:34;53.63;;;25.73;;
313;SDS011;143;51.634;7.112;2023-02-15T06:31:59;54.87;;;26.20;;
313;SDS011;143;51.634;7.112;2023-02-15T06:34:25;53.60;;;26.17;;
313;SDS011;143;51.634;7.112;2023-02-15T06:36:51;64.27;;;29.37;;
313;SDS011;143;51.634;7.112;2023-02-15T06:39:16;55.77;;;25.90;;
313;SDS011;143;51.634;7.112;2023-02-15T06:41:42;59.37;;;28.30;;
313;SDS011;143;51.634;7.112;2023-02-15T06:44:08;56.00;;;27.30;;
313;SDS011;143;51.634;7.112;2023-02-15T06:46:33;66.77;;;29.83;;
313;SDS011;143;51.634;7.112;2023-02-15T06:48:59;65.00;;;31.60;;
313;SDS011;143;51.634;7.112;2023-02-15T06:51:25;63.57;;;30.07;;
313;SDS011;143;51.634;7.112;2023-02-15T06:53:51;70.20;;;32.03;;
313;SDS011;143;51.634;7.112;2023-02-15T06:56:16;69.37;;;30.50;;
313;SDS011;143;51.634;7.112;2023-02-15T06:58:42;63.37;;;30.17;;
313;SDS011;143;51.634;7.112;2023-02-15T07:01:10;61.83;;;28.08;;
313;SDS011;143;51.634;7.112;2023-02-15T07:03:36;58.80;;;27.03;;
313;SDS011;143;51.634;7.112;2023-02-15T07:06:03;52.67;;;25.33;;
313;SDS011;143;51.634;7.112;2023-02-15T07:08:33;48.50;;;26.02;;
313;SDS011;143;51.634;7.112;2023-02-15T07:11:02;52.83;;;25.38;;
313;SDS011;143;51.634;7.112;2023-02-15T07:14:01;51.75;;;25.70;;
313;SDS011;143;51.634;7.112;2023-02-15T07:16:27;53.40;;;27.20;;
313;SDS011;143;51.634;7.112;2023-02-15T07:18:53;50.00;;;25.23;;
313;SDS011;143;51.634;7.112;2023-02-15T07:21:18;48.60;;;25.03;;
313;SDS011;143;51.634;7.112;2023-02-15T07:23:44;53.57;;;25.93;;
313;SDS011;143;51.634;7.112;2023-02-15T07:26:09;55.60;;;26.87;;
313;SDS011;143;51.634;7.112;2023-02-15T07:28:35;56.33;;;24.20;;
313;SDS011;143;51.634;7.112;2023-02-15T07:31:04;51.77;;;26.33;;
313;SDS011;143;51.634;7.112;2023-02-15T07:33:31;61.03;;;28.45;;
313;SDS011;143;51.634;7.112;2023-02-15T07:35:57;48.75;;;23.55;;
313;SDS011;143;51.634;7.112;2023-02-15T07:38:26;39.15;;;21.48;;
313;SDS011;143;51.634;7.112;2023-02-15T07:41:00;48.05;;;19.60;;
313;SDS011;143;51.634;7.112;2023-02-15T07:43:28;43.28;;;20.50;;
313;SDS011;143;51.634;7.112;2023-02-15T07:45:58;41.45;;;19.13;;
313;SDS011;143;51.634;7.112;2023-02-15T07:48:28;43.13;;;22.25;;
313;SDS011;143;51.634;7.112;2023-02-15T07:50:54;44.77;;;22.83;;
313;SDS011;143;51.634;7.112;2023-02-15T07:53:23;55.65;;;28.38;;
313;SDS011;143;51.634;7.112;2023-02-15T07:55:49;64.20;;;26.57;;
313;SDS011;143;51.634;7.112;2023-02-15T07:58:14;52.60;;;26.03;;
313;SDS011;143;51.634;7.112;2023-02-15T08:00:40;53.53;;;25.23;;
313;SDS011;143;51.634;7.112;2023-02-15T08:03:24;48.50;;;24.98;;
313;SDS011;143;51.634;7.112;2023-02-15T08:05:57;51.17;;;25.40;;
313;SDS011;143;51.634;7.112;2023-02-15T08:08:25;58.33;;;25.48;;
313;SDS011;143;51.634;7.112;2023-02-15T08:13:47;45.97;;;23.73;;
313;SDS011;143;51.634;7.112;2023-02-15T08:16:21;49.75;;;24.95;;
313;SDS011;143;51.634;7.112;2023-02-15T08:18:48;56.75;;;25.58;;
313;SDS011;143;51.634;7.112;2023-02-15T08:21:14;51.63;;;27.80;;
313;SDS011;143;51.634;7.112;2023-02-15T08:23:40;58.23;;;29.37;;
313;SDS011;143;51.634;7.112;2023-02-15T08:26:06;52.13;;;25.97;;
313;SDS011;143;51.634;7.112;2023-02-15T08:28:32;50.47;;;23.67;;
313;SDS011;143;51.634;7.112;2023-02-15T08:31:04;55.83;;;27.13;;
313;SDS011;143;51.634;7.112;2023-02-15T08:33:34;58.40;;;26.50;;
313;SDS011;143;51.634;7.112;2023-02-15T08:36:03;57.83;;;24.37;;
313;SDS011;143;51.634;7.112;2023-02-15T08:38:30;58.60;;;28.00;;
313;SDS011;143;51.634;7.112;2023-02-15T08:40:56;48.97;;;24.10;;
313;SDS011;143;51.634;7.112;2023-02-15T08:43:22;53.00;;;25.00;;
313;SDS011;143;51.634;7.112;2023-02-15T08:45:48;48.07;;;24.77;;
313;SDS011;143;51.634;7.112;2023-02-15T08:48:13;50.00;;;23.87;;
313;SDS011;143;51.634;7.112;2023-02-15T08:50:39;50.10;;;23.70;;
313;SDS011;143;51.634;7.112;2023-02-15T08:53:05;53.27;;;25.30;;
313;SDS011;143;51.634;7.112;2023-02-15T08:55:30;51.17;;;23.90;;
313;SDS011;143;51.634;7.112;2023-02-15T08:57:58;44.23;;;22.77;;
313;SDS011;143;51.634;7.112;2023-02-15T09:00:28;47.20;;;24.10;;
313;SDS011;143;51.634;7.112;2023-02-15T09:02:56;51.37;;;24.83;;
313;SDS011;143;51.634;7.112;2023-02-15T09:05:22;46.87;;;23.87;;
313;SDS011;143;51.634;7.112;2023-02-15T09:07:47;50.63;;;23.80;;
313;SDS011;143;51.634;7.112;2023-02-15T09:10:13;51.03;;;22.67;;
313;SDS011;143;51.634;7.112;2023-02-15T09:12:39;48.57;;;24.60;;
313;SDS011;143;51.634;7.112;2023-02-15T09:15:05;50.93;;;24.70;;
313;SDS011;143;51.634;7.112;2023-02-15T09:17:31;47.77;;;24.27;;
313;SDS011;143;51.634;7.112;2023-02-15T09:19:57;47.10;;;24.70;;
313;SDS011;143;51.634;7.112;2023-02-15T09:22:23;45.67;;;23.00;;
313;SDS011;143;51.634;7.112;2023-02-15T09:24:49;52.07;;;22.77;;
313;SDS011;143;51.634;7.112;2023-02-15T09:27:14;43.27;;;23.00;;
313;SDS011;143;51.634;7.112;2023-02-15T09:29:40;39.67;;;21.37;;
313;SDS011;143;51.634;7.112;2023-02-15T09:32:06;45.70;;;23.37;;
313;SDS011;143;51.634;7.112;2023-02-15T09:34:32;50.43;;;25.80;;
313;SDS011;143;51.634;7.112;2023-02-15T09:36:57;42.10;;;21.97;;
313;SDS011;143;51.634;7.112;2023-02-15T09:39:24;47.40;;;22.80;;
313;SDS011;143;51.634;7.112;2023-02-15T09:44:54;52.50;;;24.90;;
313;SDS011;143;51.634;7.112;2023-02-15T09:50:20;45.40;;;23.20;;
313;SDS011;143;51.634;7.112;2023-02-15T09:56:28;45.73;;;22.40;;
313;SDS011;143;51.634;7.112;2023-02-15T10:04:19;41.70;;;22.60;;
313;SDS011;143;51.634;7.112;2023-02-15T10:12:46;43.47;;;22.33;;
313;SDS011;143;51.634;7.112;2023-02-15T10:24:01;48.07;;;20.30;;
313;SDS011;143;51.634;7.112;2023-02-15T10:26:40;41.07;;;20.90;;
313;SDS011;143;51.634;7.112;2023-02-15T10:32:26;48.53;;;21.10;;
313;SDS011;143;51.634;7.112;2023-02-15T10:49:24;43.63;;;21.73;;
313;SDS011;143;51.634;7.112;2023-02-15T11:05:23;45.10;;;21.10;;
313;SDS011;143;51.634;7.112;2023-02-15T11:07:51;46.53;;;21.10;;
313;SDS011;143;51.634;7.112;2023-02-15T11:12:53;43.57;;;21.10;;
313;SDS011;143;51.634;7.112;2023-02-15T11:18:41;44.37;;;20.83;;
313;SDS011;143;51.634;7.112;2023-02-15T11:20:49;41.77;;;21.47;;
313;SDS011;143;51.634;7.112;2023-02-15T11:23:29;39.47;;;20.70;;
313;SDS011;143;51.634;7.112;2023-02-15T11:25:58;40.70;;;21.57;;
313;SDS011;143;51.634;7.112;2023-02-15T11:31:27;38.70;;;19.43;;
313;SDS011;143;51.634;7.112;2023-02-15T11:34:00;41.37;;;20.10;;
313;SDS011;143;51.634;7.112;2023-02-15T11:36:35;37.63;;;19.97;;
313;SDS011;143;51.634;7.112;2023-02-15T11:39:07;46.63;;;20.57;;
313;SDS011;143;51.634;7.112;2023-02-15T11:41:47;36.33;;;20.57;;
313;SDS011;143;51.634;7.112;2023-02-15T11:44:21;35.87;;;19.93;;
313;SDS011;143;51.634;7.112;2023-02-15T11:46:57;34.17;;;18.83;;
313;SDS011;143;51.634;7.112;2023-02-15T11:49:33;41.90;;;20.03;;
313;SDS011;143;51.634;7.112;2023-02-15T11:52:00;32.10;;;18.87;;
313;SDS011;143;51.634;7.112;2023-02-15T11:54:36;31.47;;;18.63;;
313;SDS011;143;51.634;7.112;2023-02-15T11:57:28;37.70;;;19.87;;
313;SDS011;143;51.634;7.112;2023-02-15T12:00:02;33.80;;;17.30;;
313;SDS011;143;51.634;7.112;2023-02-15T12:02:48;32.67;;;17.80;;
313;SDS011;143;51.634;7.112;2023-02-15T12:05:19;33.27;;;15.97;;
313;SDS011;143;51.634;7.112;2023-02-15T12:08:00;35.27;;;19.73;;
313;SDS011;143;51.634;7.112;2023-02-15T12:10:34;36.63;;;16.67;;
313;SDS011;143;51.634;7.112;2023-02-15T12:13:13;36.53;;;15.37;;
313;SDS011;143;51.634;7.112;2023-02-15T12:15:42;37.03;;;17.00;;
313;SDS011;143;51.634;7.112;2023-02-15T12:18:20;33.97;;;15.53;;
313;SDS011;143;51.634;7.112;2023-02-15T12:20:58;33.77;;;15.10;;
313;SDS011;143;51.634;7.112;2023-02-15T12:23:25;32.37;;;15.53;;
313;SDS011;143;51.634;7.112;2023-02-15T12:25:54;27.27;;;12.90;;
313;SDS011;143;51.634;7.112;2023-02-15T12:28:40;27.00;;;11.13;;
313;SDS011;143;51.634;7.112;2023-02-15T12:34:22;26.03;;;12.47;;
313;SDS011;143;51.634;7.112;2023-02-15T12:36:51;20.70;;;10.47;;
313;SDS011;143;51.634;7.112;2023-02-15T12:39:24;24.80;;;10.90;;
313;SDS011;143;51.634;7.112;2023-02-15T12:44:20;25.13;;;10.90;;
313;SDS011;143;51.634;7.112;2023-02-15T12:49:43;26.63;;;11.53;;
313;SDS011;143;51.634;7.112;2023-02-15T12:54:46;29.73;;;11.70;;
313;SDS011;143;51.634;7.112;2023-02-15T12:57:17;23.00;;;10.83;;
313;SDS011;143;51.634;7.112;2023-02-15T12:59:53;31.70;;;11.20;;
313;SDS011;143;51.634;7.112;2023-02-15T13:02:25;29.67;;;11.60;;
313;SDS011;143;51.634;7.112;2023-02-15T13:04:51;27.10;;;12.13;;
313;SDS011;143;51.634;7.112;2023-02-15T13:07:17;27.23;;;9.27;;
313;SDS011;143;51.634;7.112;2023-02-15T13:09:44;25.43;;;10.60;;
313;SDS011;143;51.634;7.112;2023-02-15T13:14:49;23.60;;;11.40;;
313;SDS011;143;51.634;7.112;2023-02-15T13:17:18;26.47;;;12.80;;
313;SDS011;143;51.634;7.112;2023-02-15T13:19:51;25.13;;;11.57;;
313;SDS011;143;51.634;7.112;2023-02-15T13:22:24;27.93;;;11.70;;
313;SDS011;143;51.634;7.112;2023-02-15T13:25:04;30.50;;;12.93;;
313;SDS011;143;51.634;7.112;2023-02-15T13:27:38;34.20;;;12.60;;
313;SDS011;143;51.634;7.112;2023-02-15T13:30:25;28.63;;;12.53;;
313;SDS011;143;51.634;7.112;2023-02-15T13:33:04;29.40;;;12.60;;
313;SDS011;143;51.634;7.112;2023-02-15T13:36:10;27.83;;;12.90;;
313;SDS011;143;51.634;7.112;2023-02-15T13:41:44;27.47;;;13.03;;
313;SDS011;143;51.634;7.112;2023-02-15T13:44:21;26.90;;;11.83;;
313;SDS011;143;51.634;7.112;2023-02-15T13:52:26;28.23;;;12.93;;
313;SDS011;143;51.634;7.112;2023-02-15T13:57:46;31.63;;;12.20;;
313;SDS011;143;51.634;7.112;2023-02-15T14:09:09;31.80;;;13.17;;
313;SDS011;143;51.634;7.112;2023-02-15T14:19:57;28.03;;;13.13;;
313;SDS011;143;51.634;7.112;2023-02-15T14:26:15;27.17;;;12.00;;
313;SDS011;143;51.634;7.112;2023-02-15T14:31:54;37.57;;;13.27;;
313;SDS011;143;51.634;7.112;2023-02-15T14:34:45;25.27;;;12.57;;
313;SDS011;143;51.634;7.112;2023-02-15T14:37:19;23.00;;;11.60;;
313;SDS011;143;51.634;7.112;2023-02-15T14:40:08;25.20;;;11.07;;
313;SDS011;143;51.634;7.112;2023-02-15T14:43:22;29.67;;;12.70;;
313;SDS011;143;51.634;7.112;2023-02-15T14:46:24;30.63;;;11.47;;
313;SDS011;143;51.634;7.112;2023-02-15T14:49:11;26.40;;;11.10;;
313;SDS011;143;51.634;7.112;2023-02-15T14:54:10;25.90;;;12.00;;
313;SDS011;143;51.634;7.112;2023-02-15T14:59:36;30.60;;;12.73;;
313;SDS011;143;51.634;7.112;2023-02-15T15:07:12;27.60;;;13.10;;
313;SDS011;143;51.634;7.112;2023-02-15T15:09:43;25.73;;;12.80;;
313;SDS011;143;51.634;7.112;2023-02-15T15:12:15;28.77;;;12.50;;
313;SDS011;143;51.634;7.112;2023-02-15T15:14:48;27.90;;;12.10;;
313;SDS011;143;51.634;7.112;2023-02-15T15:22:50;30.23;;;11.20;;
313;SDS011;143;51.634;7.112;2023-02-15T15:25:58;28.43;;;13.27;;
313;SDS011;143;51.634;7.112;2023-02-15T15:34:06;26.30;;;11.43;;
313;SDS011;143;51.634;7.112;2023-02-15T15:42:14;26.40;;;11.70;;
313;SDS011;143;51.634;7.112;2023-02-15T15:50:24;23.47;;;11.50;;
313;SDS011;143;51.634;7.112;2023-02-15T15:52:52;31.43;;;12.53;;
313;SDS011;143;51.634;7.112;2023-02-15T15:55:20;34.50;;;13.30;;
313;SDS011;143;51.634;7.112;2023-02-15T15:57:52;24.13;;;10.87;;
313;SDS011;143;51.634;7.112;2023-02-15T16:02:51;27.87;;;10.50;;
313;SDS011;143;51.634;7.112;2023-02-15T16:05:17;32.40;;;12.80;;
313;SDS011;143;51.634;7.112;2023-02-15T16:07:43;31.83;;;13.63;;
313;SDS011;143;51.634;7.112;2023-02-15T16:10:30;25.80;;;11.90;;
313;SDS011;143;51.634;7.112;2023-02-15T16:12:57;26.70;;;12.03;;
313;SDS011;143;51.634;7.112;2023-02-15T16:15:24;28.70;;;11.80;;
313;SDS011;143;51.634;7.112;2023-02-15T16:17:55;26.97;;;12.70;;
313;SDS011;143;51.634;7.112;2023-02-15T16:20:26;23.73;;;11.67;;
313;SDS011;143;51.634;7.112;2023-02-15T16:23:03;27.67;;;13.03;;
313;SDS011;143;51.634;7.112;2023-02-15T16:25:45;28.13;;;11.57;;
313;SDS011;143;51.634;7.112;2023-02-15T16:28:23;28.67;;;12.97;;
313;SDS011;143;51.634;7.112;2023-02-15T16:31:06;35.63;;;14.10;;
313;SDS011;143;51.634;7.112;2023-02-15T16:33:40;26.27;;;12.23;;
313;SDS011;143;51.634;7.112;2023-02-15T16:36:10;37.07;;;13.00;;
313;SDS011;143;51.634;7.112;2023-02-15T16:41:11;41.37;;;15.53;;
313;SDS011;143;51.634;7.112;2023-02-15T16:43:43;37.03;;;15.83;;
313;SDS011;143;51.634;7.112;2023-02-15T16:46:12;37.70;;;13.60;;
313;SDS011;143;51.634;7.112;2023-02-15T16:48:52;33.77;;;11.57;;
313;SDS011;143;51.634;7.112;2023-02-15T16:51:21;30.00;;;12.50;;
313;SDS011;143;51.634;7.112;2023-02-15T16:53:50;31.13;;;12.70;;
313;SDS011;143;51.634;7.112;2023-02-15T16:56:22;35.13;;;12.73;;
313;SDS011;143;51.634;7.112;2023-02-15T16:58:53;32.70;;;14.27;;
313;SDS011;143;51.634;7.112;2023-02-15T17:01:21;29.50;;;13.33;;
313;SDS011;143;51.634;7.112;2023-02-15T17:03:50;30.03;;;12.87;;
313;SDS011;143;51.634;7.112;2023-02-15T17:06:35;31.87;;;13.40;;
313;SDS011;143;51.634;7.112;2023-02-15T17:09:04;29.00;;;14.13;;
313;SDS011;143;51.634;7.112;2023-02-15T17:11:35;25.90;;;13.90;;
313;SDS011;143;51.634;7.112;2023-02-15T17:16:42;31.73;;;13.90;;
313;SDS011;143;51.634;7.112;2023-02-15T17:19:30;28.23;;;12.27;;
313;SDS011;143;51.634;7.112;2023-02-15T17:22:14;22.37;;;11.37;;
313;SDS011;143;51.634;7.112;2023-02-15T17:24:44;32.53;;;11.90;;
313;SDS011;143;51.634;7.112;2023-02-15T17:27:20;34.43;;;13.40;;
313;SDS011;143;51.634;7.112;2023-02-15T17:30:03;28.70;;;13.23;;
313;SDS011;143;51.634;7.112;2023-02-15T17:32:38;27.80;;;12.67;;
313;SDS011;143;51.634;7.112;2023-02-15T17:35:20;27.77;;;11.50;;
313;SDS011;143;51.634;7.112;2023-02-15T17:37:59;29.93;;;13.03;;
313;SDS011;143;51.634;7.112;2023-02-15T17:40:42;26.13;;;12.73;;
313;SDS011;143;51.634;7.112;2023-02-15T17:43:07;36.43;;;13.77;;
313;SDS011;143;51.634;7.112;2023-02-15T17:45:34;26.63;;;12.27;;
313;SDS011;143;51.634;7.112;2023-02-15T17:48:04;25.83;;;12.80;;
313;SDS011;143;51.634;7.112;2023-02-15T17:50:31;36.53;;;12.63;;
313;SDS011;143;51.634;7.112;2023-02-15T17:52:58;28.37;;;12.57;;
313;SDS011;143;51.634;7.112;2023-02-15T17:55:26;29.10;;;12.60;;
313;SDS011;143;51.634;7.112;2023-02-15T17:58:22;26.30;;;12.00;;
313;SDS011;143;51.634;7.112;2023-02-15T18:00:48;28.53;;;12.27;;
313;SDS011;143;51.634;7.112;2023-02-15T18:06:28;31.43;;;12.33;;
313;SDS011;143;51.634;7.112;2023-02-15T18:09:13;27.83;;;12.50;;
313;SDS011;143;51.634;7.112;2023-02-15T18:12:00;30.73;;;12.23;;
313;SDS011;143;51.634;7.112;2023-02-15T18:14:26;28.57;;;12.27;;
313;SDS011;143;51.634;7.112;2023-02-15T18:16:52;25.17;;;11.70;;
313;SDS011;143;51.634;7.112;2023-02-15T18:19:22;26.03;;;12.00;;
313;SDS011;143;51.634;7.112;2023-02-15T18:21:50;30.80;;;13.10;;
313;SDS011;143;51.634;7.112;2023-02-15T18:24:21;26.63;;;12.40;;
313;SDS011;143;51.634;7.112;2023-02-15T18:26:48;25.90;;;10.97;;
313;SDS011;143;51.634;7.112;2023-02-15T18:29:14;24.20;;;12.37;;
313;SDS011;143;51.634;7.112;2023-02-15T18:31:40;22.27;;;11.63;;
313;SDS011;143;51.634;7.112;2023-02-15T18:34:12;30.30;;;12.90;;
313;SDS011;143;51.634;7.112;2023-02-15T18:36:55;29.87;;;12.03;;
313;SDS011;143;51.634;7.112;2023-02-15T18:39:26;25.80;;;12.60;;
313;SDS011;143;51.634;7.112;2023-02-15T18:42:05;22.83;;;12.40;;
313;SDS011;143;51.634;7.112;2023-02-15T18:44:38;27.63;;;12.27;;
313;SDS011;143;51.634;7.112;2023-02-15T18:47:04;24.10;;;12.17;;
313;SDS011;143;51.634;7.112;2023-02-15T18:49:30;27.30;;;13.40;;
313;SDS011;143;51.634;7.112;2023-02-15T18:51:55;27.37;;;12.07;;
313;SDS011;143;51.634;7.112;2023-02-15T18:54:22;22.13;;;12.43;;
313;SDS011;143;51.634;7.112;2023-02-15T18:56:53;27.67;;;13.40;;
313;SDS011;143;51.634;7.112;2023-02-15T18:59:20;28.67;;;12.30;;